KSEE/SEE METAR and TAF weather

Enter ICAO airport designator
Station Type Date Time Source
KSEE METAR 2020/01/26 03:47 UTC NOAA

KSEE 260347Z VRB04KT 5SM HZ SKC 12/10 A3010


Station Type Date Time Source
KSEE Decoded METAR 2020/01/26 03:47 UTC NOAA

San Diego/El Cajon, Gillespie Field Airport, CA, United States (KSEE) 32-49-34N 116-58-20W
Jan 25, 2020 - 10:47 PM EST / 2020.01.26 0347 UTC
Wind: Variable at 5 MPH (4 KT):0
Visibility: 5 mile(s):0
Sky conditions: clear
Weather: haze
Temperature: 53 F (12 C)
Dew Point: 50 F (10 C)
Relative Humidity: 87%
Pressure (altimeter): 30.1 in. Hg (1019 hPa)
ob: KSEE 260347Z VRB04KT 5SM HZ SKC 12/10 A3010
cycle: 4

Station Type Date Time Source
KSEE TAF UTC NOAA

Error!

Example: see airport list